Time;durP1;ratioP1;P1;durP2;ratioP2;P2;SDS_P1;SDS_P2;PMS_P1;PMS_P2;Temp;Humidity;BMP_temperature;BMP_pressure;BME280_temperature;BME280_humidity;BME280_pressure;Samples;Min_cycle;Max_cycle;Signal;HPM_P1;HPM_P2
2024/01/23 00:01:17;;;;;;;2.33;1.98;;;6.70;81.80;;;;;;4972313;28;20065;-73
2024/01/23 00:03:42;;;;;;;0.00;0.00;;;6.70;81.70;;;;;;4973376;28;20058;-72
2024/01/23 00:06:08;;;;;;;0.00;0.00;;;6.80;81.70;;;;;;4972920;28;20105;-73
2024/01/23 00:08:34;;;;;;;0.63;0.63;;;6.70;81.80;;;;;;4972770;28;20105;-73
2024/01/23 00:10:59;;;;;;;0.10;0.10;;;6.70;81.80;;;;;;4966696;28;20035;-72
2024/01/23 00:13:25;;;;;;;0.10;0.10;;;6.60;81.90;;;;;;4953788;28;20051;-72
2024/01/23 00:15:51;;;;;;;0.32;0.32;;;6.70;81.70;;;;;;4971897;28;20055;-72
2024/01/23 00:18:17;;;;;;;0.00;0.00;;;6.70;81.50;;;;;;4972340;28;20089;-72
2024/01/23 00:20:43;;;;;;;0.20;0.20;;;6.70;81.50;;;;;;4972289;28;20051;-72
2024/01/23 00:23:08;;;;;;;0.20;0.20;;;6.70;81.60;;;;;;4972639;28;20142;-72
2024/01/23 00:25:34;;;;;;;0.08;0.08;;;6.70;81.70;;;;;;4988868;28;20130;-72
2024/01/23 00:28:00;;;;;;;0.10;0.10;;;6.60;81.80;;;;;;4988646;28;20043;-71
2024/01/23 00:30:25;;;;;;;0.20;0.20;;;6.60;82.00;;;;;;4977598;28;20042;-72
2024/01/23 00:32:51;;;;;;;0.00;0.00;;;6.60;82.10;;;;;;4972707;28;20084;-72
2024/01/23 00:35:17;;;;;;;0.00;0.00;;;6.60;82.10;;;;;;4971186;28;20147;-72
2024/01/23 00:37:43;;;;;;;0.00;0.00;;;6.60;82.10;;;;;;4962361;28;20093;-71
2024/01/23 00:40:12;;;;;;;0.00;0.00;;;6.60;81.90;;;;;;4971952;28;20051;-72
2024/01/23 00:42:38;;;;;;;0.22;0.22;;;6.70;82.20;;;;;;4984710;28;20085;-71
2024/01/23 00:45:03;;;;;;;0.00;0.00;;;6.60;82.30;;;;;;4972683;28;20463;-71
2024/01/23 00:47:30;;;;;;;0.00;0.00;;;6.60;82.30;;;;;;4989936;28;20047;-70
2024/01/23 00:49:57;;;;;;;0.10;0.10;;;6.60;82.30;;;;;;4969559;28;20062;-74
2024/01/23 00:52:22;;;;;;;0.10;0.10;;;6.60;82.40;;;;;;4984945;28;20078;-73
2024/01/23 00:54:48;;;;;;;0.65;0.65;;;6.60;82.60;;;;;;4972832;28;20046;-72
2024/01/23 00:57:14;;;;;;;0.00;0.00;;;6.60;82.60;;;;;;4966426;28;20057;-72
2024/01/23 00:59:40;;;;;;;0.10;0.10;;;6.60;82.40;;;;;;4954710;28;20078;-71
2024/01/23 01:02:05;;;;;;;0.00;0.00;;;6.60;82.30;;;;;;4987785;28;20078;-70
2024/01/23 01:04:31;;;;;;;0.00;0.00;;;6.50;82.60;;;;;;4972124;28;20054;-70
2024/01/23 01:06:57;;;;;;;1.45;0.90;;;6.50;82.70;;;;;;4974969;28;20096;-70
2024/01/23 01:09:22;;;;;;;0.10;0.10;;;6.50;82.80;;;;;;4985821;28;20059;-72
2024/01/23 01:11:48;;;;;;;4.97;3.45;;;6.50;83.00;;;;;;4980045;28;20088;-73
2024/01/23 01:14:14;;;;;;;0.00;0.00;;;6.50;82.80;;;;;;4971414;28;20049;-72
2024/01/23 01:16:40;;;;;;;0.00;0.00;;;6.60;82.80;;;;;;4979161;28;20082;-72
2024/01/23 01:19:06;;;;;;;0.00;0.00;;;6.50;82.70;;;;;;4970840;28;20047;-72
2024/01/23 01:21:31;;;;;;;1.30;1.20;;;6.50;82.70;;;;;;4987081;28;20039;-72
2024/01/23 01:23:57;;;;;;;0.10;0.10;;;6.50;82.70;;;;;;4970940;28;20069;-72
2024/01/23 01:26:23;;;;;;;0.40;0.40;;;6.50;82.70;;;;;;4966469;28;20051;-72
2024/01/23 01:28:48;;;;;;;0.95;0.95;;;6.50;82.90;;;;;;4970535;28;20555;-72
2024/01/23 01:31:14;;;;;;;0.00;0.00;;;6.40;82.90;;;;;;4972643;28;20042;-72
2024/01/23 01:33:40;;;;;;;4.95;0.85;;;6.40;83.00;;;;;;4971181;28;20066;-71
2024/01/23 01:36:07;;;;;;;0.10;0.10;;;6.40;83.30;;;;;;4971908;28;20050;-72
2024/01/23 01:38:33;;;;;;;2.53;1.20;;;6.40;83.10;;;;;;4986728;28;20410;-72
2024/01/23 01:40:59;;;;;;;0.00;0.00;;;6.40;83.00;;;;;;4971427;28;20058;-72
2024/01/23 01:43:29;;;;;;;0.00;0.00;;;6.30;83.10;;;;;;4972652;28;20534;-72
2024/01/23 01:46:23;;;;;;;0.10;0.10;;;6.30;82.80;;;;;;4987778;28;20467;-72
2024/01/23 01:48:49;;;;;;;0.08;0.08;;;6.30;82.80;;;;;;4987193;28;20385;-72
2024/01/23 01:51:17;;;;;;;26.20;2.92;;;6.30;83.10;;;;;;4987644;28;20050;-72
2024/01/23 01:53:44;;;;;;;0.10;0.10;;;6.30;83.10;;;;;;4987618;28;20148;-71
2024/01/23 01:56:10;;;;;;;0.00;0.00;;;6.30;82.90;;;;;;4983776;28;20044;-72
2024/01/23 01:58:37;;;;;;;0.00;0.00;;;6.30;82.90;;;;;;4974704;28;20046;-72
2024/01/23 02:01:03;;;;;;;1.13;1.02;;;6.30;82.70;;;;;;4971274;28;20090;-73
2024/01/23 02:03:29;;;;;;;0.10;0.10;;;6.30;82.90;;;;;;4971018;28;20050;-73
2024/01/23 02:06:00;;;;;;;0.10;0.10;;;6.30;82.60;;;;;;4963456;28;20523;-74
2024/01/23 02:08:27;;;;;;;0.40;0.40;;;6.40;82.60;;;;;;4964224;28;20058;-73
2024/01/23 02:10:54;;;;;;;1.38;1.30;;;6.40;82.50;;;;;;4987714;28;20117;-73
2024/01/23 02:13:20;;;;;;;0.38;0.38;;;6.30;82.70;;;;;;4987066;28;20061;-74
2024/01/23 02:15:46;;;;;;;4.68;2.28;;;6.30;82.60;;;;;;4987946;28;20055;-73
2024/01/23 02:18:12;;;;;;;0.00;0.00;;;6.30;82.70;;;;;;4971327;28;20059;-74
2024/01/23 02:20:37;;;;;;;0.00;0.00;;;6.30;82.40;;;;;;4974697;28;20066;-72
2024/01/23 02:23:03;;;;;;;0.10;0.10;;;6.40;82.60;;;;;;4976192;28;20081;-72
2024/01/23 02:25:29;;;;;;;0.20;0.20;;;6.30;82.50;;;;;;4974109;28;20131;-72
2024/01/23 02:27:55;;;;;;;0.00;0.00;;;6.40;82.50;;;;;;4975821;28;20057;-72
2024/01/23 02:30:21;;;;;;;0.28;0.28;;;6.40;82.30;;;;;;4974050;28;20065;-72
2024/01/23 02:32:47;;;;;;;0.00;0.00;;;6.30;82.30;;;;;;4968837;28;20047;-72
2024/01/23 02:35:13;;;;;;;0.15;0.15;;;6.40;82.00;;;;;;4967234;28;20047;-71
2024/01/23 02:37:39;;;;;;;0.30;0.30;;;6.50;81.90;;;;;;4973821;28;20059;-72
2024/01/23 02:40:06;;;;;;;0.85;0.85;;;6.50;82.00;;;;;;4974508;28;20054;-71
2024/01/23 02:42:32;;;;;;;0.00;0.00;;;6.50;81.80;;;;;;4974527;28;20046;-73
2024/01/23 02:44:58;;;;;;;0.10;0.10;;;6.50;81.70;;;;;;4974931;28;20042;-73
2024/01/23 02:47:24;;;;;;;0.05;0.05;;;6.50;81.60;;;;;;4975449;28;20042;-73
2024/01/23 02:49:51;;;;;;;0.10;0.10;;;6.40;81.80;;;;;;4987185;28;20415;-73
2024/01/23 02:52:16;;;;;;;0.15;0.15;;;6.50;81.80;;;;;;4972331;28;20521;-72
2024/01/23 02:54:43;;;;;;;0.10;0.10;;;6.40;81.80;;;;;;4961446;28;20097;-73
2024/01/23 02:57:09;;;;;;;0.00;0.00;;;6.50;82.10;;;;;;4990100;28;20527;-72
2024/01/23 02:59:35;;;;;;;0.10;0.10;;;6.50;81.90;;;;;;4973525;28;20055;-72
2024/01/23 03:02:01;;;;;;;2.40;1.95;;;6.60;81.70;;;;;;4974559;28;20046;-72
2024/01/23 03:04:26;;;;;;;0.00;0.00;;;6.70;81.50;;;;;;4974185;28;20043;-72
2024/01/23 03:06:52;;;;;;;1.55;1.20;;;6.80;81.30;;;;;;4974177;28;20397;-73
2024/01/23 03:09:18;;;;;;;0.50;0.50;;;6.70;81.40;;;;;;4989393;28;20054;-72
2024/01/23 03:11:44;;;;;;;0.00;0.00;;;6.80;81.50;;;;;;4975197;28;20050;-72
2024/01/23 03:14:11;;;;;;;0.10;0.10;;;6.70;81.60;;;;;;4974026;28;20146;-73
2024/01/23 03:16:37;;;;;;;0.30;0.30;;;6.80;81.50;;;;;;4973634;28;20059;-72
2024/01/23 03:19:03;;;;;;;0.70;0.38;;;6.90;81.70;;;;;;4957798;28;20046;-72
2024/01/23 03:21:29;;;;;;;0.00;0.00;;;6.90;81.50;;;;;;4975132;28;20054;-72
2024/01/23 03:23:54;;;;;;;2.92;2.65;;;6.90;81.40;;;;;;5001016;28;20043;-71
2024/01/23 03:26:20;;;;;;;0.00;0.00;;;7.00;81.50;;;;;;4974973;28;20043;-72
2024/01/23 03:28:46;;;;;;;0.10;0.10;;;6.90;81.60;;;;;;4973678;28;20050;-72
2024/01/23 03:31:11;;;;;;;0.10;0.10;;;6.90;81.60;;;;;;4971002;28;20527;-72
2024/01/23 03:33:37;;;;;;;0.10;0.10;;;6.90;81.50;;;;;;4988614;28;20520;-72
2024/01/23 03:36:03;;;;;;;0.63;0.63;;;7.00;81.40;;;;;;4989765;28;20073;-73
2024/01/23 03:38:29;;;;;;;0.10;0.10;;;7.00;81.70;;;;;;4973219;28;20055;-73
2024/01/23 03:40:55;;;;;;;1.48;1.40;;;7.10;81.40;;;;;;4973649;28;20393;-71
2024/01/23 03:43:22;;;;;;;0.70;0.70;;;7.00;81.60;;;;;;4972099;28;20055;-71
2024/01/23 03:45:47;;;;;;;0.68;0.68;;;7.00;81.80;;;;;;4958388;28;20497;-71
2024/01/23 03:48:13;;;;;;;0.10;0.10;;;7.00;82.00;;;;;;4973422;28;20043;-71
2024/01/23 03:50:39;;;;;;;0.00;0.00;;;7.00;82.00;;;;;;4974366;28;20051;-71
2024/01/23 03:53:04;;;;;;;0.20;0.20;;;7.10;81.70;;;;;;4989743;28;20047;-71
2024/01/23 03:55:30;;;;;;;0.10;0.10;;;7.10;81.70;;;;;;4972316;28;20086;-72
2024/01/23 03:57:56;;;;;;;1.00;1.00;;;7.10;81.60;;;;;;4973397;28;20148;-71
2024/01/23 04:00:22;;;;;;;0.10;0.10;;;7.10;81.80;;;;;;4972645;28;20058;-72
2024/01/23 04:02:48;;;;;;;0.10;0.10;;;7.10;81.80;;;;;;4989650;28;20046;-72
2024/01/23 04:05:14;;;;;;;0.57;0.57;;;7.10;81.90;;;;;;4971776;28;20072;-71
2024/01/23 04:07:40;;;;;;;1.08;0.80;;;7.10;81.80;;;;;;4973058;28;20117;-72
2024/01/23 04:10:08;;;;;;;0.00;0.00;;;7.10;81.80;;;;;;4972495;28;20046;-71
2024/01/23 04:12:34;;;;;;;0.10;0.10;;;7.10;81.80;;;;;;4956940;28;20137;-72
2024/01/23 04:15:00;;;;;;;0.00;0.00;;;7.10;81.90;;;;;;4968847;28;20105;-72
2024/01/23 04:17:28;;;;;;;0.10;0.10;;;7.10;82.00;;;;;;4989175;28;20059;-72
2024/01/23 04:19:54;;;;;;;0.32;0.30;;;7.10;81.90;;;;;;4971837;28;20050;-72
2024/01/23 04:22:20;;;;;;;0.10;0.10;;;7.10;81.90;;;;;;4972794;28;20530;-72
2024/01/23 04:24:46;;;;;;;2.42;1.27;;;7.00;82.10;;;;;;4988077;28;20051;-72
2024/01/23 04:27:12;;;;;;;0.10;0.10;;;7.10;82.20;;;;;;4974205;28;20078;-72
2024/01/23 04:29:38;;;;;;;0.05;0.05;;;7.10;82.10;;;;;;5001410;28;20078;-72
2024/01/23 04:32:04;;;;;;;0.10;0.10;;;7.10;82.10;;;;;;4988595;28;20043;-72
2024/01/23 04:34:30;;;;;;;0.03;0.03;;;7.10;81.90;;;;;;4972194;28;20126;-71
2024/01/23 04:36:55;;;;;;;0.35;0.35;;;7.20;81.90;;;;;;4972911;28;20142;-73
2024/01/23 04:39:21;;;;;;;0.00;0.00;;;7.20;81.80;;;;;;4974004;28;20607;-72
2024/01/23 04:41:47;;;;;;;0.00;0.00;;;7.10;81.60;;;;;;4976761;28;20058;-72
2024/01/23 04:44:13;;;;;;;0.43;0.43;;;7.30;81.50;;;;;;4986932;28;20061;-72
2024/01/23 04:46:39;;;;;;;0.00;0.00;;;7.20;81.70;;;;;;4976706;28;20136;-72
2024/01/23 04:49:04;;;;;;;0.20;0.20;;;7.20;81.80;;;;;;4988402;28;20119;-72
2024/01/23 04:51:30;;;;;;;0.00;0.00;;;7.20;82.00;;;;;;4976185;28;20054;-72
2024/01/23 04:53:56;;;;;;;0.45;0.45;;;7.20;81.70;;;;;;4972594;28;20138;-72
2024/01/23 04:56:22;;;;;;;0.10;0.10;;;7.20;81.70;;;;;;4971466;28;20130;-71
2024/01/23 04:58:48;;;;;;;0.00;0.00;;;7.10;81.70;;;;;;4971015;28;20053;-72
2024/01/23 05:01:15;;;;;;;0.70;0.70;;;7.10;81.80;;;;;;4962298;28;20054;-73
2024/01/23 05:03:41;;;;;;;0.15;0.15;;;7.10;82.00;;;;;;4971930;28;20130;-73
2024/01/23 05:06:06;;;;;;;0.10;0.10;;;7.00;82.00;;;;;;4971917;28;20126;-72
2024/01/23 05:08:32;;;;;;;0.00;0.00;;;7.00;82.10;;;;;;4983863;28;20634;-71
2024/01/23 05:10:58;;;;;;;0.00;0.00;;;7.00;82.40;;;;;;4990301;28;20189;-72
2024/01/23 05:13:23;;;;;;;0.00;0.00;;;6.90;82.40;;;;;;4988977;28;20046;-72
2024/01/23 05:15:49;;;;;;;0.00;0.00;;;6.80;82.90;;;;;;4988770;28;20082;-70
2024/01/23 05:18:15;;;;;;;3.47;2.30;;;6.80;82.90;;;;;;4972577;28;20050;-70
2024/01/23 05:20:41;;;;;;;3.10;2.83;;;6.70;83.30;;;;;;4971738;28;20039;-71
2024/01/23 05:23:06;;;;;;;0.50;0.50;;;6.70;83.30;;;;;;4972137;28;20039;-70
2024/01/23 05:25:32;;;;;;;0.28;0.28;;;6.60;83.70;;;;;;4966744;28;20133;-71
2024/01/23 05:27:58;;;;;;;0.00;0.00;;;6.60;84.00;;;;;;4972461;28;20047;-70
2024/01/23 05:30:24;;;;;;;0.63;0.63;;;6.60;83.80;;;;;;4971981;28;20050;-71
2024/01/23 05:32:50;;;;;;;0.00;0.00;;;6.50;84.10;;;;;;4994536;28;20042;-71
2024/01/23 05:35:16;;;;;;;0.13;0.13;;;6.60;84.40;;;;;;4971562;28;20051;-71
2024/01/23 05:37:43;;;;;;;0.00;0.00;;;6.40;84.50;;;;;;4987242;28;20416;-71
2024/01/23 05:40:12;;;;;;;1.80;1.67;;;6.40;84.70;;;;;;4968896;28;20050;-71
2024/01/23 05:42:38;;;;;;;2.42;2.22;;;6.50;84.70;;;;;;4962538;28;20054;-72
2024/01/23 05:45:05;;;;;;;0.10;0.10;;;6.50;84.70;;;;;;4987488;28;20049;-70
2024/01/23 05:47:31;;;;;;;0.10;0.10;;;6.40;84.90;;;;;;4976802;28;20415;-70
2024/01/23 05:49:56;;;;;;;0.82;0.82;;;6.30;84.90;;;;;;4990222;28;20057;-70
2024/01/23 05:52:22;;;;;;;0.08;0.08;;;6.40;84.80;;;;;;4971201;28;20574;-71
2024/01/23 05:54:49;;;;;;;0.00;0.00;;;6.40;85.20;;;;;;4985041;28;20042;-72
2024/01/23 05:57:16;;;;;;;0.00;0.00;;;6.30;85.10;;;;;;4986786;28;20401;-72
2024/01/23 05:59:42;;;;;;;0.10;0.10;;;6.40;84.90;;;;;;4969333;28;20046;-71
2024/01/23 06:02:07;;;;;;;0.03;0.03;;;6.40;84.70;;;;;;4971319;28;20050;-71
2024/01/23 06:04:33;;;;;;;0.52;0.52;;;6.40;85.00;;;;;;4969665;28;20400;-72
2024/01/23 06:06:59;;;;;;;0.35;0.35;;;6.30;85.30;;;;;;4970295;28;20142;-72
2024/01/23 06:09:25;;;;;;;0.00;0.00;;;6.40;85.20;;;;;;4970912;28;20619;-71
2024/01/23 06:11:52;;;;;;;0.55;0.55;;;6.40;85.00;;;;;;4985372;23;20790;-70
2024/01/23 06:14:18;;;;;;;0.32;0.32;;;6.30;85.30;;;;;;4967484;28;20058;-70
2024/01/23 06:16:44;;;;;;;0.10;0.10;;;6.30;85.50;;;;;;4966734;28;20050;-71
2024/01/23 06:19:10;;;;;;;0.10;0.10;;;6.30;85.30;;;;;;4967255;28;20456;-70
2024/01/23 06:21:36;;;;;;;0.25;0.25;;;6.40;85.30;;;;;;4960829;28;20051;-70
2024/01/23 06:24:02;;;;;;;0.03;0.03;;;6.30;85.00;;;;;;4961949;28;20500;-71
2024/01/23 06:26:27;;;;;;;2.28;1.42;;;6.30;85.10;;;;;;4960305;28;20050;-71
2024/01/23 06:28:53;;;;;;;0.00;0.00;;;6.40;85.00;;;;;;4967403;28;20063;-71
2024/01/23 06:31:25;;;;;;;37.60;1.75;;;6.30;85.10;;;;;;4959658;28;20154;-72
2024/01/23 06:33:51;;;;;;;0.10;0.10;;;6.40;85.10;;;;;;4969050;28;20055;-67
2024/01/23 06:36:17;;;;;;;0.35;0.35;;;6.40;84.70;;;;;;4981626;28;20065;-72
2024/01/23 06:38:43;;;;;;;0.10;0.10;;;6.40;84.90;;;;;;4965809;28;20039;-73
2024/01/23 06:41:09;;;;;;;0.10;0.10;;;6.40;85.10;;;;;;4966192;28;20105;-72
2024/01/23 06:43:35;;;;;;;0.15;0.15;;;6.40;84.90;;;;;;4960888;28;20058;-72
2024/01/23 06:46:02;;;;;;;0.00;0.00;;;6.40;85.10;;;;;;4965798;28;20051;-72
2024/01/23 06:48:28;;;;;;;0.20;0.20;;;6.40;85.20;;;;;;4963038;28;20049;-73
2024/01/23 06:50:54;;;;;;;0.08;0.08;;;6.30;85.20;;;;;;4959642;28;20401;-73
2024/01/23 06:53:19;;;;;;;0.65;0.65;;;6.30;85.50;;;;;;4959577;28;20058;-72
2024/01/23 06:55:45;;;;;;;0.35;0.35;;;6.30;85.50;;;;;;4958105;28;20074;-73
2024/01/23 06:58:11;;;;;;;0.00;0.00;;;6.20;85.60;;;;;;4965890;28;20134;-73
2024/01/23 07:00:37;;;;;;;0.00;0.00;;;6.20;85.70;;;;;;4965841;28;20038;-72
2024/01/23 07:03:03;;;;;;;0.10;0.10;;;6.20;85.70;;;;;;4966184;28;20093;-72
2024/01/23 07:05:28;;;;;;;1.85;0.47;;;6.10;85.80;;;;;;4965960;28;20401;-72
2024/01/23 07:07:54;;;;;;;0.00;0.00;;;6.20;85.90;;;;;;4963566;28;20102;-71
2024/01/23 07:10:20;;;;;;;0.20;0.20;;;6.10;85.90;;;;;;4964056;28;20038;-71
2024/01/23 07:12:46;;;;;;;0.13;0.13;;;6.20;86.00;;;;;;4969110;28;20102;-76
2024/01/23 07:15:12;;;;;;;0.00;0.00;;;6.20;86.00;;;;;;4968077;28;20101;-73
2024/01/23 07:17:37;;;;;;;0.00;0.00;;;6.20;86.00;;;;;;4969547;28;20046;-70
2024/01/23 07:20:05;;;;;;;0.08;0.08;;;6.20;86.00;;;;;;4979779;28;20043;-70
2024/01/23 07:22:30;;;;;;;1.02;0.98;;;6.10;86.00;;;;;;4969972;28;20081;-72
2024/01/23 07:25:01;;;;;;;1.55;1.45;;;6.10;86.10;;;;;;4971631;28;20579;-71
2024/01/23 07:27:26;;;;;;;0.10;0.10;;;6.10;86.10;;;;;;4970627;28;20440;-70
2024/01/23 07:29:52;;;;;;;0.45;0.45;;;6.10;86.30;;;;;;4971669;28;20117;-69
2024/01/23 07:32:17;;;;;;;2.92;2.72;;;6.00;86.40;;;;;;4969851;28;20405;-69
2024/01/23 07:34:43;;;;;;;0.03;0.03;;;6.10;86.30;;;;;;4965594;28;20101;-69
2024/01/23 07:37:09;;;;;;;1.17;0.73;;;6.00;86.20;;;;;;4963963;28;20837;-69
2024/01/23 07:39:35;;;;;;;0.08;0.08;;;6.00;86.30;;;;;;4967729;28;20047;-68
2024/01/23 07:42:00;;;;;;;0.00;0.00;;;6.10;86.30;;;;;;4973592;28;20043;-68
2024/01/23 07:44:26;;;;;;;0.43;0.43;;;6.00;86.50;;;;;;4969601;28;20042;-69
2024/01/23 07:46:52;;;;;;;3.83;2.05;;;5.90;86.50;;;;;;4968470;28;20540;-68
2024/01/23 07:49:18;;;;;;;0.45;0.45;;;5.90;86.50;;;;;;4967520;28;20031;-68
2024/01/23 07:51:47;;;;;;;0.00;0.00;;;5.90;86.50;;;;;;4969321;28;20445;-68
2024/01/23 07:54:13;;;;;;;0.00;0.00;;;5.90;86.60;;;;;;4970518;28;20057;-69
2024/01/23 07:56:39;;;;;;;0.30;0.30;;;5.90;86.60;;;;;;4973596;28;20050;-69
2024/01/23 07:59:05;;;;;;;0.32;0.32;;;5.90;86.70;;;;;;4967674;28;20047;-68
2024/01/23 08:01:31;;;;;;;0.00;0.00;;;5.90;86.80;;;;;;4971216;28;20038;-68
2024/01/23 08:03:57;;;;;;;0.32;0.32;;;5.80;86.90;;;;;;4969106;28;20047;-69
2024/01/23 08:06:23;;;;;;;0.00;0.00;;;5.80;87.10;;;;;;4967760;28;20058;-68
2024/01/23 08:08:50;;;;;;;0.00;0.00;;;5.80;87.00;;;;;;4969366;28;20043;-69
2024/01/23 08:11:16;;;;;;;0.75;0.75;;;5.70;87.00;;;;;;4969919;28;20055;-68
2024/01/23 08:13:42;;;;;;;0.13;0.13;;;5.80;87.20;;;;;;4969074;28;20059;-68
2024/01/23 08:16:11;;;;;;;0.95;0.95;;;5.70;87.20;;;;;;4966897;28;20053;-69
2024/01/23 08:18:37;;;;;;;0.10;0.10;;;5.90;87.30;;;;;;4958784;28;20101;-69
2024/01/23 08:21:04;;;;;;;0.00;0.00;;;5.90;87.10;;;;;;4968576;28;20047;-69
2024/01/23 08:23:29;;;;;;;0.08;0.08;;;5.70;87.20;;;;;;4965201;28;20035;-69
2024/01/23 08:25:55;;;;;;;0.10;0.10;;;5.80;87.30;;;;;;4968503;28;20403;-69
2024/01/23 08:28:23;;;;;;;0.43;0.43;;;5.70;87.20;;;;;;4969057;28;20058;-69
2024/01/23 08:30:49;;;;;;;0.15;0.15;;;5.80;87.40;;;;;;4970064;28;20043;-69
2024/01/23 08:33:18;;;;;;;0.00;0.00;;;5.70;87.50;;;;;;4968545;28;20055;-69
2024/01/23 08:35:47;;;;;;;0.00;0.00;;;5.70;87.60;;;;;;4969608;28;20054;-69
2024/01/23 08:38:13;;;;;;;3.10;1.15;;;5.70;87.70;;;;;;4968424;28;20066;-69
2024/01/23 08:40:39;;;;;;;0.00;0.00;;;5.80;87.60;;;;;;4969368;28;20059;-69
2024/01/23 08:43:05;;;;;;;0.00;0.00;;;5.80;87.50;;;;;;4966522;28;20233;-69
2024/01/23 08:45:31;;;;;;;9.13;3.50;;;5.80;87.60;;;;;;4950294;28;20081;-69
2024/01/23 08:47:58;;;;;;;0.03;0.03;;;5.80;87.60;;;;;;4961815;28;20857;-69
2024/01/23 08:50:23;;;;;;;0.10;0.10;;;5.80;87.60;;;;;;4965992;28;20055;-69
2024/01/23 08:52:49;;;;;;;7.22;3.30;;;5.90;87.70;;;;;;4984974;28;20461;-69
2024/01/23 08:55:15;;;;;;;0.08;0.08;;;5.90;87.60;;;;;;4976282;28;20039;-69
2024/01/23 08:57:43;;;;;;;1.52;1.45;;;5.90;87.60;;;;;;4983357;28;20046;-69
2024/01/23 09:00:13;;;;;;;0.10;0.10;;;5.90;87.60;;;;;;4968437;28;20055;-69
2024/01/23 09:02:39;;;;;;;0.00;0.00;;;5.90;87.60;;;;;;4978218;28;20051;-69
2024/01/23 09:05:05;;;;;;;1.13;1.13;;;6.00;87.50;;;;;;4963366;28;20420;-69
2024/01/23 09:07:31;;;;;;;0.10;0.10;;;6.10;87.50;;;;;;4968813;28;20042;-70
2024/01/23 09:09:57;;;;;;;0.98;0.98;;;6.10;87.40;;;;;;4969527;28;20892;-70
2024/01/23 09:12:25;;;;;;;0.00;0.00;;;6.10;87.30;;;;;;4964515;28;20162;-68
2024/01/23 09:14:51;;;;;;;0.20;0.20;;;6.10;87.20;;;;;;4984241;28;20058;-68
2024/01/23 09:17:16;;;;;;;0.00;0.00;;;6.20;87.20;;;;;;4967278;28;20043;-68
2024/01/23 09:19:42;;;;;;;0.82;0.77;;;6.30;87.00;;;;;;4964505;28;20179;-68
2024/01/23 09:22:08;;;;;;;0.10;0.10;;;6.30;86.80;;;;;;4968909;28;20575;-70
2024/01/23 09:24:34;;;;;;;0.60;0.60;;;6.30;86.80;;;;;;4969313;28;20050;-69
2024/01/23 09:27:01;;;;;;;1.15;1.15;;;6.40;86.80;;;;;;4958019;28;20105;-69
2024/01/23 09:29:27;;;;;;;0.20;0.20;;;6.40;86.70;;;;;;4954363;28;20529;-69
2024/01/23 09:31:53;;;;;;;0.00;0.00;;;6.50;86.50;;;;;;4962169;28;20109;-69
2024/01/23 09:34:19;;;;;;;0.00;0.00;;;6.50;86.50;;;;;;4965454;28;20042;-69
2024/01/23 09:36:45;;;;;;;0.10;0.10;;;6.60;86.30;;;;;;4967667;28;20089;-69
2024/01/23 09:39:13;;;;;;;0.65;0.65;;;6.60;86.20;;;;;;4965381;28;20374;-69
2024/01/23 09:41:50;;;;;;;0.00;0.00;;;6.60;86.20;;;;;;4967241;28;20035;-69
2024/01/23 09:44:21;;;;;;;0.57;0.57;;;6.60;85.80;;;;;;4968758;28;20057;-69
2024/01/23 09:46:50;;;;;;;0.10;0.10;;;6.60;85.90;;;;;;4967542;28;20047;-68
2024/01/23 09:49:16;;;;;;;2.55;2.30;;;6.70;86.00;;;;;;4965482;28;20119;-68
2024/01/23 09:51:47;;;;;;;0.00;0.00;;;6.70;86.00;;;;;;4975409;28;20046;-69
2024/01/23 09:54:16;;;;;;;0.25;0.25;;;6.70;86.10;;;;;;4959815;28;20057;-68
2024/01/23 09:56:43;;;;;;;0.13;0.13;;;6.70;86.10;;;;;;4966129;28;20082;-69
2024/01/23 09:59:09;;;;;;;0.00;0.00;;;6.80;86.00;;;;;;4966769;28;20098;-68
2024/01/23 10:01:36;;;;;;;0.20;0.20;;;6.80;86.20;;;;;;4968722;28;20480;-68
2024/01/23 10:04:06;;;;;;;1.80;0.60;;;6.90;86.00;;;;;;4967915;28;20039;-68
2024/01/23 10:06:32;;;;;;;0.68;0.68;;;6.90;86.00;;;;;;4968044;28;20049;-69
2024/01/23 10:08:58;;;;;;;0.10;0.10;;;6.80;86.10;;;;;;4971385;28;20042;-69
2024/01/23 10:11:28;;;;;;;0.00;0.00;;;6.90;85.80;;;;;;4967311;28;20101;-69
2024/01/23 10:13:56;;;;;;;1.75;1.65;;;6.90;85.90;;;;;;4959827;28;20043;-69
2024/01/23 10:16:22;;;;;;;0.00;0.00;;;6.90;85.90;;;;;;4978742;28;20114;-69
2024/01/23 10:18:50;;;;;;;0.25;0.25;;;6.90;85.80;;;;;;4963649;28;20039;-69
2024/01/23 10:21:20;;;;;;;1.20;1.17;;;6.90;85.70;;;;;;4971488;28;20051;-69
2024/01/23 10:23:47;;;;;;;0.00;0.00;;;6.90;85.60;;;;;;4966477;28;20042;-69
2024/01/23 10:26:13;;;;;;;0.10;0.10;;;6.90;85.50;;;;;;4957959;28;20047;-69
2024/01/23 10:28:43;;;;;;;4.95;2.45;;;7.00;85.10;;;;;;4962129;28;20830;-69
2024/01/23 10:31:09;;;;;;;1.67;1.38;;;7.10;85.00;;;;;;4960578;28;20055;-69
2024/01/23 10:33:37;;;;;;;0.75;0.75;;;7.10;85.30;;;;;;4958901;28;20053;-70
2024/01/23 10:36:05;;;;;;;0.00;0.00;;;7.10;85.00;;;;;;4964061;28;20106;-70
2024/01/23 10:38:31;;;;;;;0.40;0.40;;;7.10;85.20;;;;;;4965528;28;20075;-69
2024/01/23 10:40:59;;;;;;;5.22;1.75;;;7.20;84.80;;;;;;4981615;28;20161;-69
2024/01/23 10:43:29;;;;;;;0.35;0.35;;;7.30;84.60;;;;;;4985537;28;20102;-69
2024/01/23 10:45:57;;;;;;;0.43;0.43;;;7.20;84.40;;;;;;4970505;28;20047;-69
2024/01/23 10:48:24;;;;;;;1.08;1.02;;;7.20;84.50;;;;;;4980513;28;20730;-69
2024/01/23 10:50:54;;;;;;;0.00;0.00;;;7.30;84.40;;;;;;4968599;28;20089;-69
2024/01/23 10:53:22;;;;;;;4.93;1.27;;;7.30;84.10;;;;;;4969545;28;20051;-69
2024/01/23 10:55:51;;;;;;;0.00;0.00;;;7.30;83.90;;;;;;4973081;28;20047;-69
2024/01/23 10:58:35;;;;;;;0.10;0.10;;;7.40;83.60;;;;;;4973158;28;20144;-69
2024/01/23 11:01:03;;;;;;;0.05;0.05;;;7.50;83.80;;;;;;4962627;28;20047;-69
2024/01/23 11:03:33;;;;;;;0.00;0.00;;;7.50;83.70;;;;;;4980190;28;20051;-69
2024/01/23 11:06:16;;;;;;;0.20;0.20;;;7.50;83.70;;;;;;4967772;28;20046;-69
2024/01/23 11:09:06;;;;;;;0.10;0.10;;;7.60;83.40;;;;;;4968631;28;20054;-69
2024/01/23 11:11:49;;;;;;;0.00;0.00;;;7.50;83.40;;;;;;4966826;28;20487;-69
2024/01/23 11:14:21;;;;;;;0.10;0.10;;;7.50;83.30;;;;;;4952894;28;20074;-69
2024/01/23 11:17:12;;;;;;;0.20;0.20;;;7.40;83.70;;;;;;4955822;28;20093;-69
2024/01/23 11:19:42;;;;;;;0.50;0.50;;;7.50;83.80;;;;;;4965848;28;20061;-69
2024/01/23 11:22:09;;;;;;;0.00;0.00;;;7.40;83.60;;;;;;4971512;28;20074;-69
2024/01/23 11:24:43;;;;;;;0.75;0.75;;;7.40;83.30;;;;;;4977687;28;20045;-69
2024/01/23 11:27:22;;;;;;;0.00;0.00;;;7.30;83.50;;;;;;4983914;28;20046;-69
2024/01/23 11:29:49;;;;;;;0.00;0.00;;;7.30;83.60;;;;;;4968953;28;20062;-68
2024/01/23 11:32:33;;;;;;;0.00;0.00;;;7.40;83.70;;;;;;4963975;28;20404;-69
2024/01/23 11:34:59;;;;;;;0.00;0.00;;;7.40;83.60;;;;;;4963692;28;20043;-69
2024/01/23 11:37:45;;;;;;;0.30;0.30;;;7.40;83.60;;;;;;4975434;28;20050;-69
2024/01/23 11:40:31;;;;;;;0.43;0.43;;;7.40;83.70;;;;;;4973736;28;20047;-69
2024/01/23 11:42:59;;;;;;;0.65;0.65;;;7.50;83.80;;;;;;4966572;28;20051;-68
2024/01/23 11:45:29;;;;;;;0.00;0.00;;;7.40;84.00;;;;;;4969258;28;20045;-69
2024/01/23 11:48:02;;;;;;;0.85;0.85;;;7.30;84.30;;;;;;4968430;28;20800;-69
2024/01/23 11:50:30;;;;;;;0.10;0.10;;;7.40;84.20;;;;;;4966067;28;20057;-69
2024/01/23 11:52:58;;;;;;;0.08;0.08;;;7.50;84.40;;;;;;4965215;28;20039;-70
2024/01/23 11:55:24;;;;;;;0.52;0.52;;;7.50;84.20;;;;;;4965077;28;20074;-69
2024/01/23 11:57:51;;;;;;;1.40;1.17;;;7.60;84.10;;;;;;4968875;28;20118;-69
2024/01/23 12:00:18;;;;;;;0.70;0.70;;;7.60;83.80;;;;;;4968694;28;20503;-70
2024/01/23 12:02:44;;;;;;;0.10;0.10;;;7.50;84.00;;;;;;4969259;28;20042;-69
2024/01/23 12:05:10;;;;;;;0.10;0.10;;;7.60;84.10;;;;;;4950299;28;20054;-69
2024/01/23 12:07:39;;;;;;;1.00;1.00;;;7.70;84.20;;;;;;4968377;28;20042;-69
2024/01/23 12:10:09;;;;;;;0.00;0.00;;;7.60;84.20;;;;;;4970259;28;20065;-69
2024/01/23 12:12:36;;;;;;;0.08;0.08;;;7.60;84.40;;;;;;4966671;28;20416;-69
2024/01/23 12:15:04;;;;;;;3.40;2.28;;;7.70;84.20;;;;;;4962092;28;20043;-69
2024/01/23 12:17:34;;;;;;;0.50;0.50;;;7.70;84.20;;;;;;4959168;28;20053;-68
2024/01/23 12:20:09;;;;;;;0.10;0.10;;;7.70;83.80;;;;;;4968813;28;20047;-68
2024/01/23 12:22:38;;;;;;;0.10;0.10;;;7.70;83.90;;;;;;4965894;28;20058;-68
2024/01/23 12:25:08;;;;;;;0.00;0.00;;;7.70;84.00;;;;;;4968689;28;20229;-68
2024/01/23 12:27:34;;;;;;;2.30;1.38;;;7.80;83.40;;;;;;4970029;28;20473;-69
2024/01/23 12:30:00;;;;;;;0.00;0.00;;;7.80;83.70;;;;;;4968965;28;20049;-69
2024/01/23 12:32:29;;;;;;;0.45;0.45;;;7.90;84.00;;;;;;4969514;28;20043;-68
2024/01/23 12:34:56;;;;;;;0.10;0.10;;;8.00;83.70;;;;;;4968399;28;20046;-69
2024/01/23 12:37:30;;;;;;;0.57;0.57;;;7.90;83.40;;;;;;4969637;28;20463;-69
2024/01/23 12:40:02;;;;;;;0.00;0.00;;;8.00;83.70;;;;;;4977978;28;20107;-69
2024/01/23 12:42:28;;;;;;;0.00;0.00;;;8.10;83.30;;;;;;4989033;28;20057;-69
2024/01/23 12:44:54;;;;;;;0.20;0.20;;;8.10;83.00;;;;;;4972970;28;20042;-69
2024/01/23 12:47:20;;;;;;;0.38;0.38;;;8.10;82.60;;;;;;4972530;28;20117;-69
2024/01/23 12:49:49;;;;;;;0.00;0.00;;;8.00;82.80;;;;;;4959473;28;20051;-69
2024/01/23 12:52:16;;;;;;;0.75;0.75;;;7.90;83.30;;;;;;4959347;28;20072;-69
2024/01/23 12:54:43;;;;;;;0.20;0.20;;;8.00;83.40;;;;;;4974837;28;20042;-69
2024/01/23 12:57:10;;;;;;;1.30;0.35;;;8.10;83.70;;;;;;4988877;28;20058;-69